createdAt,value
2022-11-02T00:00:06.813Z,1010.51
2022-11-02T00:01:06.821Z,1010.47
2022-11-02T00:02:06.914Z,1010.46
2022-11-02T00:03:07.359Z,1010.48
2022-11-02T00:04:06.890Z,1010.47
2022-11-02T00:05:06.915Z,1010.47
2022-11-02T00:06:06.939Z,1010.41
2022-11-02T00:07:06.961Z,1010.36
2022-11-02T00:08:06.986Z,1010.32
2022-11-02T00:09:07.011Z,1010.34
2022-11-02T00:10:07.031Z,1010.32
2022-11-02T00:11:07.053Z,1010.32
2022-11-02T00:12:07.074Z,1010.36
2022-11-02T00:13:07.467Z,1010.37
2022-11-02T00:14:07.130Z,1010.35
2022-11-02T00:15:07.149Z,1010.32
2022-11-02T00:16:07.167Z,1010.32
2022-11-02T00:17:07.193Z,1010.31
2022-11-02T00:18:07.223Z,1010.37
2022-11-02T00:19:07.245Z,1010.34
2022-11-02T00:20:07.265Z,1010.31
2022-11-02T00:21:07.283Z,1010.31
2022-11-02T00:22:07.310Z,1010.38
2022-11-02T00:23:07.850Z,1010.32
2022-11-02T00:24:07.357Z,1010.33
2022-11-02T00:25:07.383Z,1010.27
2022-11-02T00:26:07.407Z,1010.26
2022-11-02T00:27:07.425Z,1010.28
2022-11-02T00:28:07.445Z,1010.27
2022-11-02T00:29:07.471Z,1010.30
2022-11-02T00:30:07.497Z,1010.29
2022-11-02T00:31:07.518Z,1010.34
2022-11-02T00:32:07.542Z,1010.30
2022-11-02T00:33:07.565Z,1010.26
2022-11-02T00:34:07.585Z,1010.30
2022-11-02T00:35:07.605Z,1010.30
2022-11-02T00:36:07.636Z,1010.29
2022-11-02T00:37:07.653Z,1010.32
2022-11-02T00:38:07.962Z,1010.31
2022-11-02T00:39:07.698Z,1010.27
2022-11-02T00:40:07.728Z,1010.20
2022-11-02T00:41:07.770Z,1010.22
2022-11-02T00:42:07.772Z,1010.22
2022-11-02T00:43:07.792Z,1010.21
2022-11-02T00:44:07.823Z,1010.20
2022-11-02T00:45:07.841Z,1010.24
2022-11-02T00:46:07.868Z,1010.24
2022-11-02T00:47:07.886Z,1010.20
2022-11-02T00:48:08.030Z,1010.15
2022-11-02T00:49:07.937Z,1010.18
2022-11-02T00:50:07.962Z,1010.15
2022-11-02T00:51:07.980Z,1010.19
2022-11-02T00:52:08.008Z,1010.13
2022-11-02T00:53:08.029Z,1010.14
2022-11-02T00:54:08.053Z,1010.13
2022-11-02T00:55:08.079Z,1010.06
2022-11-02T00:56:08.103Z,1010.07
2022-11-02T00:57:08.127Z,1010.06
2022-11-02T00:58:08.412Z,1010.00
2022-11-02T00:59:08.172Z,1010.03
2022-11-02T01:00:08.195Z,1009.98
2022-11-02T01:01:08.603Z,1009.97
2022-11-02T01:02:08.343Z,1009.96
2022-11-02T01:03:08.266Z,1009.94
2022-11-02T01:04:08.291Z,1009.96
2022-11-02T01:05:08.316Z,1009.96
2022-11-02T01:06:08.336Z,1009.96
2022-11-02T01:07:08.365Z,1009.93
2022-11-02T01:08:08.384Z,1009.95
2022-11-02T01:09:08.408Z,1009.95
2022-11-02T01:10:08.430Z,1009.92
2022-11-02T01:11:08.456Z,1009.96
2022-11-02T01:12:08.481Z,1009.95
2022-11-02T01:13:08.501Z,1010.01
2022-11-02T01:14:08.523Z,1010.00
2022-11-02T01:15:08.550Z,1009.94
2022-11-02T01:16:08.579Z,1009.96
2022-11-02T01:17:08.596Z,1009.96
2022-11-02T01:18:08.616Z,1009.93
2022-11-02T01:19:08.655Z,1009.93
2022-11-02T01:20:08.667Z,1009.88
2022-11-02T01:21:08.692Z,1009.88
2022-11-02T01:22:08.714Z,1009.90
2022-11-02T01:23:08.742Z,1009.97
2022-11-02T01:24:08.788Z,1009.96
2022-11-02T01:25:08.783Z,1009.94
2022-11-02T01:26:08.805Z,1009.91
2022-11-02T01:27:08.831Z,1009.87
2022-11-02T01:28:08.852Z,1009.88
2022-11-02T01:29:08.880Z,1009.92
2022-11-02T01:30:08.902Z,1009.90
2022-11-02T01:31:08.927Z,1009.88
2022-11-02T01:32:08.950Z,1009.86
2022-11-02T01:33:08.971Z,1009.84
2022-11-02T01:34:09.013Z,1009.82
2022-11-02T01:35:09.023Z,1009.88
2022-11-02T01:36:09.085Z,1009.84
2022-11-02T01:37:09.068Z,1009.88
2022-11-02T01:38:09.094Z,1009.86
2022-11-02T01:39:09.113Z,1009.89
2022-11-02T01:40:09.142Z,1009.86
2022-11-02T01:41:09.162Z,1009.87
2022-11-02T01:42:09.184Z,1009.88
2022-11-02T01:43:09.213Z,1009.85
2022-11-02T01:44:09.238Z,1009.91
2022-11-02T01:45:09.264Z,1009.87
2022-11-02T01:46:09.282Z,1009.87
2022-11-02T01:47:09.304Z,1009.84
2022-11-02T01:48:09.324Z,1009.88
2022-11-02T01:49:09.353Z,1009.86
2022-11-02T01:50:09.374Z,1009.88
2022-11-02T01:51:09.404Z,1009.82
2022-11-02T01:52:09.419Z,1009.81
2022-11-02T01:53:09.451Z,1009.81
2022-11-02T01:54:09.472Z,1009.79
2022-11-02T01:55:09.502Z,1009.79
2022-11-02T01:56:09.566Z,1009.78
2022-11-02T01:57:09.541Z,1009.75
2022-11-02T01:58:09.565Z,1009.80
2022-11-02T01:59:09.587Z,1009.75
2022-11-02T02:00:09.609Z,1009.74
2022-11-02T02:01:09.678Z,1009.74
2022-11-02T02:02:09.822Z,1009.75
2022-11-02T02:03:09.684Z,1009.73
2022-11-02T02:04:09.707Z,1009.73
2022-11-02T02:05:09.731Z,1009.71
2022-11-02T02:06:09.753Z,1009.76
2022-11-02T02:07:09.780Z,1009.72
2022-11-02T02:08:09.798Z,1009.74
2022-11-02T02:09:09.826Z,1009.78
2022-11-02T02:10:09.847Z,1009.77
2022-11-02T02:11:09.875Z,1009.75
2022-11-02T02:12:09.900Z,1009.75
2022-11-02T02:13:09.918Z,1009.74
2022-11-02T02:14:09.949Z,1009.73
2022-11-02T02:15:09.968Z,1009.72
2022-11-02T02:16:09.990Z,1009.71
2022-11-02T02:17:10.020Z,1009.70
2022-11-02T02:18:10.041Z,1009.71
2022-11-02T02:19:10.060Z,1009.74
2022-11-02T02:20:10.081Z,1009.75
2022-11-02T02:21:10.111Z,1009.72
2022-11-02T02:22:10.130Z,1009.70
2022-11-02T02:23:10.162Z,1009.72
2022-11-02T02:24:10.182Z,1009.71
2022-11-02T02:25:10.204Z,1009.71
2022-11-02T02:26:10.227Z,1009.70
2022-11-02T02:27:10.253Z,1009.70
2022-11-02T02:28:10.277Z,1009.68
2022-11-02T02:29:10.300Z,1009.71
2022-11-02T02:30:10.337Z,1009.61
2022-11-02T02:31:10.342Z,1009.66
2022-11-02T02:32:10.369Z,1009.65
2022-11-02T02:33:10.403Z,1009.64
2022-11-02T02:34:10.417Z,1009.65
2022-11-02T02:35:10.448Z,1009.66
2022-11-02T02:36:10.464Z,1009.63
2022-11-02T02:37:10.484Z,1009.58
2022-11-02T02:38:10.510Z,1009.63
2022-11-02T02:39:10.533Z,1009.70
2022-11-02T02:40:10.558Z,1009.68
2022-11-02T02:41:10.578Z,1009.61
2022-11-02T02:42:10.600Z,1009.64
2022-11-02T02:43:10.636Z,1009.64
2022-11-02T02:44:10.656Z,1009.61
2022-11-02T02:45:10.673Z,1009.63
2022-11-02T02:46:10.697Z,1009.66
2022-11-02T02:47:10.722Z,1009.68
2022-11-02T02:48:10.738Z,1009.61
2022-11-02T02:49:10.769Z,1009.67
2022-11-02T02:50:10.789Z,1009.65
2022-11-02T02:51:10.810Z,1009.65
2022-11-02T02:52:10.844Z,1009.66
2022-11-02T02:53:10.856Z,1009.64
2022-11-02T02:54:10.882Z,1009.66
2022-11-02T02:55:10.901Z,1009.70
2022-11-02T02:56:10.942Z,1009.65
2022-11-02T02:57:10.960Z,1009.68
2022-11-02T02:58:10.973Z,1009.73
2022-11-02T02:59:11.001Z,1009.68
2022-11-02T03:00:11.022Z,1009.66
2022-11-02T03:01:11.186Z,1009.71
2022-11-02T03:02:11.136Z,1009.74
2022-11-02T03:03:11.090Z,1009.70
2022-11-02T03:04:11.115Z,1009.69
2022-11-02T03:05:11.141Z,1009.70
2022-11-02T03:06:11.162Z,1009.69
2022-11-02T03:07:11.181Z,1009.71
2022-11-02T03:08:11.207Z,1009.77
2022-11-02T03:09:11.233Z,1009.74
2022-11-02T03:10:11.252Z,1009.71
2022-11-02T03:11:11.273Z,1009.70
2022-11-02T03:12:11.297Z,1009.70
2022-11-02T03:13:11.320Z,1009.66
2022-11-02T03:14:11.342Z,1009.61
2022-11-02T03:15:11.369Z,1009.66
2022-11-02T03:16:11.385Z,1009.66
2022-11-02T03:17:11.414Z,1009.66
2022-11-02T03:18:11.436Z,1009.64
2022-11-02T03:19:11.462Z,1009.67
2022-11-02T03:20:11.484Z,1009.69
2022-11-02T03:21:11.509Z,1009.71
2022-11-02T03:22:11.531Z,1009.72
2022-11-02T03:23:11.549Z,1009.68
2022-11-02T03:24:11.571Z,1009.69
2022-11-02T03:25:11.597Z,1009.73
2022-11-02T03:26:11.632Z,1009.74
2022-11-02T03:27:11.642Z,1009.72
2022-11-02T03:28:11.667Z,1009.70
2022-11-02T03:29:11.691Z,1009.73
2022-11-02T03:30:11.712Z,1009.75
2022-11-02T03:31:11.736Z,1009.75
2022-11-02T03:32:11.756Z,1009.77
2022-11-02T03:33:11.781Z,1009.73
2022-11-02T03:34:11.800Z,1009.76
2022-11-02T03:35:11.824Z,1009.78
2022-11-02T03:36:11.850Z,1009.79
2022-11-02T03:37:11.877Z,1009.79
2022-11-02T03:38:11.893Z,1009.77
2022-11-02T03:39:11.916Z,1009.79
2022-11-02T03:40:11.941Z,1009.81
2022-11-02T03:41:11.963Z,1009.82
2022-11-02T03:42:11.991Z,1009.82
2022-11-02T03:43:12.011Z,1009.83
2022-11-02T03:44:12.029Z,1009.86
2022-11-02T03:45:12.059Z,1009.89
2022-11-02T03:46:12.080Z,1009.90
2022-11-02T03:47:12.099Z,1009.90
2022-11-02T03:48:12.122Z,1009.92
2022-11-02T03:49:12.150Z,1010.00
2022-11-02T03:50:12.171Z,1009.98
2022-11-02T03:51:12.199Z,1009.97
2022-11-02T03:52:12.216Z,1010.02
2022-11-02T03:53:12.247Z,1010.04
2022-11-02T03:54:12.261Z,1010.02
2022-11-02T03:55:12.293Z,1010.02
2022-11-02T03:56:12.304Z,1010.06
2022-11-02T03:57:12.329Z,1010.05
2022-11-02T03:58:12.353Z,1010.08
2022-11-02T03:59:12.379Z,1010.00
2022-11-02T04:00:12.397Z,1010.04
2022-11-02T04:01:12.436Z,1010.04
2022-11-02T04:02:12.681Z,1010.04
2022-11-02T04:03:12.468Z,1010.08
2022-11-02T04:04:12.492Z,1010.06
2022-11-02T04:05:12.516Z,1010.07
2022-11-02T04:06:12.539Z,1010.09
2022-11-02T04:07:12.560Z,1010.12
2022-11-02T04:08:12.585Z,1010.16
2022-11-02T04:09:12.608Z,1010.11
2022-11-02T04:10:12.633Z,1010.12
2022-11-02T04:11:12.653Z,1010.14
2022-11-02T04:12:12.678Z,1010.19
2022-11-02T04:13:12.701Z,1010.23
2022-11-02T04:14:12.732Z,1010.19
2022-11-02T04:15:12.747Z,1010.15
2022-11-02T04:16:12.766Z,1010.17
2022-11-02T04:17:12.790Z,1010.19
2022-11-02T04:18:12.815Z,1010.20
2022-11-02T04:19:12.837Z,1010.21
2022-11-02T04:20:12.856Z,1010.21
2022-11-02T04:21:12.881Z,1010.17
2022-11-02T04:22:12.909Z,1010.25
2022-11-02T04:23:12.930Z,1010.23
2022-11-02T04:24:12.954Z,1010.24
2022-11-02T04:25:12.980Z,1010.16
2022-11-02T04:26:12.996Z,1010.25
2022-11-02T04:27:16.740Z,1010.19
2022-11-02T04:28:13.041Z,1010.20
2022-11-02T04:29:13.065Z,1010.20
2022-11-02T04:30:13.094Z,1010.23
2022-11-02T04:31:13.110Z,1010.19
2022-11-02T04:32:13.138Z,1010.22
2022-11-02T04:33:13.160Z,1010.18
2022-11-02T04:34:13.182Z,1010.24
2022-11-02T04:35:13.205Z,1010.29
2022-11-02T04:36:13.225Z,1010.19
2022-11-02T04:37:13.260Z,1010.28
2022-11-02T04:38:13.279Z,1010.28
2022-11-02T04:39:13.299Z,1010.24
2022-11-02T04:40:13.325Z,1010.25
2022-11-02T04:41:13.348Z,1010.26
2022-11-02T04:42:13.369Z,1010.25
2022-11-02T04:43:13.391Z,1010.29
2022-11-02T04:44:13.412Z,1010.26
2022-11-02T04:45:13.443Z,1010.28
2022-11-02T04:46:13.462Z,1010.30
2022-11-02T04:47:13.486Z,1010.30
2022-11-02T04:48:13.507Z,1010.33
2022-11-02T04:49:13.529Z,1010.35
2022-11-02T04:50:13.552Z,1010.37
2022-11-02T04:51:13.577Z,1010.36
2022-11-02T04:52:13.603Z,1010.38
2022-11-02T04:53:13.625Z,1010.36
2022-11-02T04:54:13.646Z,1010.36
2022-11-02T04:55:13.672Z,1010.35
2022-11-02T04:56:13.698Z,1010.35
2022-11-02T04:57:13.721Z,1010.33
2022-11-02T04:58:13.740Z,1010.35
2022-11-02T04:59:13.769Z,1010.35
2022-11-02T05:00:13.794Z,1010.32
2022-11-02T05:01:13.854Z,1010.34
2022-11-02T05:02:13.997Z,1010.35
2022-11-02T05:03:13.858Z,1010.33
2022-11-02T05:04:13.883Z,1010.35
2022-11-02T05:05:13.914Z,1010.33
2022-11-02T05:06:13.929Z,1010.32
2022-11-02T05:07:13.954Z,1010.29
2022-11-02T05:08:13.975Z,1010.33
2022-11-02T05:09:13.997Z,1010.33
2022-11-02T05:10:14.017Z,1010.36
2022-11-02T05:11:14.045Z,1010.41
2022-11-02T05:12:14.065Z,1010.33
2022-11-02T05:13:14.094Z,1010.39
2022-11-02T05:14:14.115Z,1010.36
2022-11-02T05:15:14.139Z,1010.40
2022-11-02T05:16:14.167Z,1010.39
2022-11-02T05:17:14.184Z,1010.43
2022-11-02T05:18:18.608Z,1010.40
2022-11-02T05:19:14.242Z,1010.39
2022-11-02T05:20:14.253Z,1010.40
2022-11-02T05:21:14.286Z,1010.37
2022-11-02T05:22:14.340Z,1010.38
2022-11-02T05:23:14.325Z,1010.39
2022-11-02T05:24:14.351Z,1010.41
2022-11-02T05:25:14.374Z,1010.33
2022-11-02T05:26:14.400Z,1010.38
2022-11-02T05:27:14.414Z,1010.34
2022-11-02T05:28:14.437Z,1010.39
2022-11-02T05:29:14.464Z,1010.41
2022-11-02T05:30:14.488Z,1010.38
2022-11-02T05:31:14.511Z,1010.41
2022-11-02T05:32:14.535Z,1010.40
2022-11-02T05:33:14.570Z,1010.40
2022-11-02T05:34:14.577Z,1010.43
2022-11-02T05:35:14.610Z,1010.45
2022-11-02T05:36:14.624Z,1010.40
2022-11-02T05:37:14.647Z,1010.35
2022-11-02T05:38:14.670Z,1010.45
2022-11-02T05:39:14.695Z,1010.46
2022-11-02T05:40:14.717Z,1010.42
2022-11-02T05:41:14.736Z,1010.48
2022-11-02T05:42:14.763Z,1010.50
2022-11-02T05:43:14.800Z,1010.48
2022-11-02T05:44:14.808Z,1010.47
2022-11-02T05:45:14.834Z,1010.41
2022-11-02T05:46:14.859Z,1010.41
2022-11-02T05:47:14.880Z,1010.44
2022-11-02T05:48:14.902Z,1010.42
2022-11-02T05:49:14.932Z,1010.43
2022-11-02T05:50:14.948Z,1010.47
2022-11-02T05:51:14.969Z,1010.43
2022-11-02T05:52:14.991Z,1010.49
2022-11-02T05:53:15.018Z,1010.51
2022-11-02T05:54:15.040Z,1010.56
2022-11-02T05:55:15.061Z,1010.57
2022-11-02T05:56:16.543Z,1010.56
2022-11-02T05:57:15.107Z,1010.58
2022-11-02T05:58:15.135Z,1010.57
2022-11-02T05:59:15.160Z,1010.63
2022-11-02T06:00:15.177Z,1010.65
2022-11-02T06:01:15.253Z,1010.66
2022-11-02T06:02:15.229Z,1010.70
2022-11-02T06:03:15.260Z,1010.72
2022-11-02T06:04:15.304Z,1010.71
2022-11-02T06:05:15.356Z,1010.75
2022-11-02T06:06:15.315Z,1010.76
2022-11-02T06:07:15.340Z,1010.74
2022-11-02T06:08:15.361Z,1010.75
2022-11-02T06:09:15.385Z,1010.79
2022-11-02T06:10:15.411Z,1010.78
2022-11-02T06:11:15.436Z,1010.79
2022-11-02T06:12:15.465Z,1010.89
2022-11-02T06:13:15.474Z,1010.88
2022-11-02T06:14:15.524Z,1010.85
2022-11-02T06:15:15.526Z,1010.87
2022-11-02T06:16:18.757Z,1010.82
2022-11-02T06:17:15.570Z,1010.88
2022-11-02T06:18:15.604Z,1010.87
2022-11-02T06:20:15.639Z,1010.91
2022-11-02T06:21:15.666Z,1010.98
2022-11-02T06:22:15.685Z,1010.94
2022-11-02T06:23:15.706Z,1010.96
2022-11-02T06:24:15.729Z,1010.96
2022-11-02T06:25:15.759Z,1011.00
2022-11-02T06:26:15.775Z,1011.02
2022-11-02T06:27:15.803Z,1011.05
2022-11-02T06:28:15.825Z,1010.97
2022-11-02T06:29:15.839Z,1011.07
2022-11-02T06:30:15.870Z,1011.05
2022-11-02T06:31:15.887Z,1011.04
2022-11-02T06:32:15.924Z,1011.15
2022-11-02T06:33:15.937Z,1011.17
2022-11-02T06:34:15.958Z,1011.19
2022-11-02T06:35:15.978Z,1011.17
2022-11-02T06:36:16.003Z,1011.14
2022-11-02T06:37:16.048Z,1011.19
2022-11-02T06:38:16.063Z,1011.19
2022-11-02T06:39:16.070Z,1011.21
2022-11-02T06:40:16.098Z,1011.25
2022-11-02T06:41:16.130Z,1011.31
2022-11-02T06:42:16.145Z,1011.29
2022-11-02T06:43:17.302Z,1011.26
2022-11-02T06:44:16.195Z,1011.32
2022-11-02T06:45:16.219Z,1011.34
2022-11-02T06:46:16.238Z,1011.33
2022-11-02T06:47:16.260Z,1011.29
2022-11-02T06:48:16.284Z,1011.36
2022-11-02T06:49:16.303Z,1011.34
2022-11-02T06:50:16.326Z,1011.38
2022-11-02T06:51:16.349Z,1011.42
2022-11-02T06:52:16.373Z,1011.43
2022-11-02T06:53:16.397Z,1011.43
2022-11-02T06:54:23.589Z,1011.46
2022-11-02T06:56:20.930Z,1011.45
2022-11-02T06:57:20.444Z,1011.50
2022-11-02T06:59:24.454Z,1011.54
2022-11-02T07:00:24.479Z,1011.52
2022-11-02T07:02:28.985Z,1011.53
2022-11-02T07:03:28.514Z,1011.60
2022-11-02T07:05:32.506Z,1011.58
2022-11-02T07:06:32.526Z,1011.60
2022-11-02T07:08:37.012Z,1011.64
2022-11-02T07:09:36.542Z,1011.66
2022-11-02T07:11:40.556Z,1011.73
2022-11-02T07:12:40.609Z,1011.76
2022-11-02T07:14:45.068Z,1011.83
2022-11-02T07:15:44.604Z,1011.79
2022-11-02T07:17:48.627Z,1011.86
2022-11-02T07:18:48.635Z,1011.96
2022-11-02T07:20:53.130Z,1011.90
2022-11-02T07:21:52.659Z,1011.91
2022-11-02T07:23:45.596Z,1011.93
2022-11-02T07:24:45.615Z,1011.96
2022-11-02T07:26:50.118Z,1012.01
2022-11-02T07:27:49.630Z,1012.01
2022-11-02T07:29:53.652Z,1012.05
2022-11-02T07:30:53.661Z,1012.02
2022-11-02T07:32:47.142Z,1012.03
2022-11-02T07:33:46.621Z,1012.03
2022-11-02T07:35:50.625Z,1012.12
2022-11-02T07:36:50.655Z,1012.15
2022-11-02T07:38:55.134Z,1012.22
2022-11-02T07:39:54.665Z,1012.20
2022-11-02T07:41:58.707Z,1012.28
2022-11-02T07:42:58.703Z,1012.25
2022-11-02T07:45:03.206Z,1012.26
2022-11-02T07:46:02.727Z,1012.34
2022-11-02T07:48:06.747Z,1012.31
2022-11-02T07:49:06.760Z,1012.31
2022-11-02T07:51:11.269Z,1012.41
2022-11-02T07:52:10.799Z,1012.40
2022-11-02T07:54:14.801Z,1012.42
2022-11-02T07:55:14.813Z,1012.49
2022-11-02T07:57:19.308Z,1012.50
2022-11-02T07:58:18.845Z,1012.56
2022-11-02T08:00:22.870Z,1012.57
2022-11-02T08:01:22.986Z,1012.61
2022-11-02T08:03:16.436Z,1012.65
2022-11-02T08:04:15.983Z,1012.66
2022-11-02T08:06:19.932Z,1012.69
2022-11-02T08:07:19.955Z,1012.74
2022-11-02T08:09:24.440Z,1012.80
2022-11-02T08:10:23.973Z,1012.81
2022-11-02T08:12:27.986Z,1012.78
2022-11-02T08:13:32.891Z,1012.75
2022-11-02T08:15:32.493Z,1012.81
2022-11-02T08:16:32.032Z,1012.82
2022-11-02T08:20:08.186Z,1012.82
2022-11-02T08:21:08.182Z,1012.82
2022-11-02T08:23:01.664Z,1012.78
2022-11-02T08:24:01.156Z,1012.84
2022-11-02T08:26:05.174Z,1012.85
2022-11-02T08:27:05.193Z,1012.93
2022-11-02T08:29:09.690Z,1012.70
2022-11-02T08:30:09.225Z,1012.92
2022-11-02T08:32:13.251Z,1012.87
2022-11-02T08:33:13.311Z,1012.96
2022-11-02T08:35:17.759Z,1013.04
2022-11-02T08:36:17.300Z,1012.97
2022-11-02T08:38:21.315Z,1013.04
2022-11-02T08:39:21.334Z,1012.97
2022-11-02T08:41:25.819Z,1013.05
2022-11-02T08:42:25.360Z,1013.14
2022-11-02T08:44:29.390Z,1013.13
2022-11-02T08:45:35.083Z,1013.23
2022-11-02T08:47:33.900Z,1013.17
2022-11-02T08:48:33.444Z,1013.17
2022-11-02T08:50:26.384Z,1013.25
2022-11-02T08:51:26.396Z,1013.20
2022-11-02T08:53:30.906Z,1013.20
2022-11-02T08:54:30.433Z,1013.22
2022-11-02T08:56:34.467Z,1013.30
2022-11-02T08:57:34.470Z,1013.29
2022-11-02T08:59:38.976Z,1013.23
2022-11-02T09:00:38.511Z,1013.26
2022-11-02T09:02:42.583Z,1013.37
2022-11-02T09:03:42.539Z,1013.36
2022-11-02T09:05:47.038Z,1013.38
2022-11-02T09:06:46.576Z,1013.41
2022-11-02T09:08:52.771Z,1013.42
2022-11-02T09:09:50.606Z,1013.46
2022-11-02T09:11:55.099Z,1013.41
2022-11-02T09:12:54.641Z,1013.49
2022-11-02T09:14:58.651Z,1013.47
2022-11-02T09:15:58.675Z,1013.49
2022-11-02T09:18:03.668Z,1013.60
2022-11-02T09:19:02.690Z,1013.60
2022-11-02T09:20:55.639Z,1013.64
2022-11-02T09:21:55.652Z,1013.62
2022-11-02T09:24:00.841Z,1013.63
2022-11-02T09:24:59.723Z,1013.71
2022-11-02T09:27:03.744Z,1013.78
2022-11-02T09:28:03.759Z,1013.70
2022-11-02T09:31:12.240Z,1013.77
2022-11-02T09:32:11.773Z,1013.75
2022-11-02T09:34:15.783Z,1013.77
2022-11-02T09:35:15.798Z,1013.76
2022-11-02T09:37:20.294Z,1013.75
2022-11-02T09:38:19.830Z,1013.72
2022-11-02T09:40:12.797Z,1013.74
2022-11-02T09:41:12.787Z,1013.77
2022-11-02T09:43:17.278Z,1013.85
2022-11-02T09:44:16.825Z,1013.87
2022-11-02T09:46:20.835Z,1013.86
2022-11-02T09:49:25.353Z,1013.95
2022-11-02T09:52:28.902Z,1013.95
2022-11-02T09:53:28.917Z,1013.95
2022-11-02T09:55:33.414Z,1014.01
2022-11-02T09:56:32.945Z,1014.01
2022-11-02T09:58:26.076Z,1013.97
2022-11-02T09:59:26.101Z,1013.94
2022-11-02T10:01:30.635Z,1014.01
2022-11-02T10:02:30.183Z,1014.02
2022-11-02T10:04:34.151Z,1014.04
2022-11-02T10:05:34.163Z,1014.03
2022-11-02T10:07:38.660Z,1014.10
2022-11-02T10:08:38.201Z,1014.06
2022-11-02T10:10:31.145Z,1014.15
2022-11-02T10:11:31.268Z,1014.11
2022-11-02T10:13:35.661Z,1014.14
2022-11-02T10:14:35.201Z,1014.20
2022-11-02T10:16:39.219Z,1014.16
2022-11-02T10:17:39.237Z,1014.24
2022-11-02T10:19:43.731Z,1014.26
2022-11-02T10:20:43.278Z,1014.26
2022-11-02T10:22:47.326Z,1014.31
2022-11-02T10:23:47.330Z,1014.31
2022-11-02T10:25:51.827Z,1014.36
2022-11-02T10:26:51.365Z,1014.28
2022-11-02T10:28:55.379Z,1014.34
2022-11-02T10:29:55.401Z,1014.33
2022-11-02T10:33:04.317Z,1014.27
2022-11-02T10:34:03.422Z,1014.39
2022-11-02T10:36:22.918Z,1014.33
2022-11-02T10:37:07.462Z,1014.41
2022-11-02T10:39:11.965Z,1014.34
2022-11-02T10:40:11.495Z,1014.32
2022-11-02T10:42:15.555Z,1014.24
2022-11-02T10:43:15.583Z,1014.27
2022-11-02T10:45:20.053Z,1014.39
2022-11-02T10:46:19.582Z,1014.41
2022-11-02T10:48:23.608Z,1014.39
2022-11-02T10:49:23.625Z,1014.46
2022-11-02T10:51:28.610Z,1014.39
2022-11-02T10:52:27.651Z,1014.46
2022-11-02T10:54:34.525Z,1014.38
2022-11-02T10:55:31.677Z,1014.44
2022-11-02T10:57:36.179Z,1014.43
2022-11-02T10:58:35.723Z,1014.53
2022-11-02T11:00:28.817Z,1014.50
2022-11-02T11:01:28.800Z,1014.46
2022-11-02T11:03:33.178Z,1014.50
2022-11-02T11:04:32.713Z,1014.51
2022-11-02T11:06:36.724Z,1014.48
2022-11-02T11:07:36.746Z,1014.58
2022-11-02T11:09:46.439Z,1014.61
2022-11-02T11:10:40.776Z,1014.63
2022-11-02T11:12:44.801Z,1014.65
2022-11-02T11:15:49.315Z,1014.74
2022-11-02T11:16:48.936Z,1014.73
2022-11-02T11:19:52.899Z,1014.74
2022-11-02T11:21:57.388Z,1014.70
2022-11-02T11:22:56.935Z,1014.71
2022-11-02T11:25:00.944Z,1014.66
2022-11-02T11:26:00.989Z,1014.60
2022-11-02T11:28:05.760Z,1014.70
2022-11-02T11:29:04.999Z,1014.72
2022-11-02T11:31:00.195Z,1014.72
2022-11-02T11:31:57.959Z,1014.74
2022-11-02T11:34:02.457Z,1014.67
2022-11-02T11:35:01.999Z,1014.79
2022-11-02T11:37:06.015Z,1014.73
2022-11-02T11:38:06.340Z,1014.73
2022-11-02T11:40:10.528Z,1014.74
2022-11-02T11:41:10.068Z,1014.75
2022-11-02T11:43:14.097Z,1014.90
2022-11-02T11:44:14.113Z,1014.83
2022-11-02T11:46:18.624Z,1014.87
2022-11-02T11:47:18.155Z,1014.82
2022-11-02T11:49:31.108Z,1014.83
2022-11-02T11:50:29.514Z,1014.77
2022-11-02T11:52:31.234Z,1014.80
2022-11-02T11:53:26.238Z,1014.79
2022-11-02T11:55:30.269Z,1014.80
2022-11-02T11:56:30.268Z,1014.74
2022-11-02T11:58:34.763Z,1014.86
2022-11-02T11:59:34.302Z,1014.73
2022-11-02T12:01:38.399Z,1014.73
2022-11-02T12:02:43.979Z,1014.79
2022-11-02T12:04:42.832Z,1014.79
2022-11-02T12:05:42.368Z,1014.78
2022-11-02T12:07:46.395Z,1014.73
2022-11-02T12:08:46.408Z,1014.80
2022-11-02T12:10:39.887Z,1014.68
2022-11-02T12:11:39.361Z,1014.70
2022-11-02T12:13:43.403Z,1014.68
2022-11-02T12:14:43.407Z,1014.67
2022-11-02T12:16:47.917Z,1014.64
2022-11-02T12:17:47.446Z,1014.66
2022-11-02T12:19:51.485Z,1014.66
2022-11-02T12:20:51.503Z,1014.54
2022-11-02T12:22:55.999Z,1014.60
2022-11-02T12:23:55.570Z,1014.62
2022-11-02T12:26:03.233Z,1014.60
2022-11-02T12:26:59.583Z,1014.63
2022-11-02T12:29:04.081Z,1014.63
2022-11-02T12:30:03.624Z,1014.71
2022-11-02T12:32:07.637Z,1014.65
2022-11-02T12:33:07.946Z,1014.66
2022-11-02T12:35:29.341Z,1014.62
2022-11-02T12:36:11.724Z,1014.65
2022-11-02T12:38:15.713Z,1014.64
2022-11-02T12:39:15.749Z,1014.60
2022-11-02T12:41:09.208Z,1014.60
2022-11-02T12:42:08.689Z,1014.57
2022-11-02T12:44:12.715Z,1014.57
2022-11-02T12:45:12.724Z,1014.57
2022-11-02T12:47:17.222Z,1014.54
2022-11-02T12:48:16.762Z,1014.63
2022-11-02T12:50:09.706Z,1014.57
2022-11-02T12:51:09.731Z,1014.67
2022-11-02T12:53:14.718Z,1014.68
2022-11-02T12:54:14.259Z,1014.61
2022-11-02T12:55:17.065Z,1014.65
2022-11-02T12:56:14.313Z,1014.70
2022-11-02T12:57:14.340Z,1014.67
2022-11-02T12:58:14.362Z,1014.66
2022-11-02T12:59:14.421Z,1014.64
2022-11-02T13:00:14.416Z,1014.64
2022-11-02T13:01:14.536Z,1014.64
2022-11-02T13:02:14.466Z,1014.69
2022-11-02T13:03:14.492Z,1014.69
2022-11-02T13:04:14.510Z,1014.69
2022-11-02T13:05:14.542Z,1014.74
2022-11-02T13:06:14.567Z,1014.66
2022-11-02T13:07:14.591Z,1014.69
2022-11-02T13:08:14.616Z,1014.69
2022-11-02T13:09:14.647Z,1014.73
2022-11-02T13:10:14.672Z,1014.66
2022-11-02T13:11:14.699Z,1014.68
2022-11-02T13:12:14.717Z,1014.66
2022-11-02T13:13:14.743Z,1014.70
2022-11-02T13:14:15.676Z,1014.66
2022-11-02T13:15:14.801Z,1014.71
2022-11-02T13:16:14.822Z,1014.72
2022-11-02T13:17:14.850Z,1014.74
2022-11-02T13:18:14.901Z,1014.76
2022-11-02T13:19:14.900Z,1014.81
2022-11-02T13:20:22.179Z,1014.78
2022-11-02T13:22:19.414Z,1014.76
2022-11-02T13:23:19.034Z,1014.76
2022-11-02T13:25:22.992Z,1014.76
2022-11-02T13:26:23.010Z,1014.75
2022-11-02T13:28:27.498Z,1014.74
2022-11-02T13:29:27.047Z,1014.73
2022-11-02T13:31:31.074Z,1014.76
2022-11-02T13:32:34.042Z,1014.76
2022-11-02T13:34:35.561Z,1014.76
2022-11-02T13:35:35.115Z,1014.81
2022-11-02T13:37:39.132Z,1014.77
2022-11-02T13:38:39.146Z,1014.82
2022-11-02T13:40:32.628Z,1014.83
2022-11-02T13:41:32.102Z,1014.84
2022-11-02T13:43:36.128Z,1014.80
2022-11-02T13:44:36.138Z,1014.86
2022-11-02T13:46:40.622Z,1014.81
2022-11-02T13:47:40.182Z,1014.86
2022-11-02T13:49:44.193Z,1014.83
2022-11-02T13:50:44.208Z,1014.84
2022-11-02T13:52:50.200Z,1014.80
2022-11-02T13:53:48.246Z,1014.83
2022-11-02T13:55:52.276Z,1014.79
2022-11-02T13:56:52.279Z,1014.73
2022-11-02T13:58:56.773Z,1014.74
2022-11-02T13:59:56.319Z,1014.69
2022-11-02T14:02:00.495Z,1014.73
2022-11-02T14:03:00.466Z,1014.72
2022-11-02T14:05:05.340Z,1014.75
2022-11-02T14:06:04.384Z,1014.76
2022-11-02T14:08:08.811Z,1014.78
2022-11-02T14:09:08.421Z,1014.77
2022-11-02T14:11:03.605Z,1014.75
2022-11-02T14:12:01.381Z,1014.77
2022-11-02T14:14:05.406Z,1014.81
2022-11-02T14:15:05.417Z,1014.81
2022-11-02T14:17:09.932Z,1014.84
2022-11-02T14:18:09.691Z,1014.82
2022-11-02T14:20:13.487Z,1014.81
2022-11-02T14:21:13.496Z,1014.78
2022-11-02T14:23:17.987Z,1014.82
2022-11-02T14:24:17.537Z,1014.87
2022-11-02T14:26:21.550Z,1014.79
2022-11-02T14:27:21.569Z,1014.84
2022-11-02T14:29:26.061Z,1014.83
2022-11-02T14:30:25.603Z,1014.82
2022-11-02T14:32:29.638Z,1014.78
2022-11-02T14:33:29.645Z,1014.76
2022-11-02T14:35:34.138Z,1014.75
2022-11-02T14:36:33.688Z,1014.74
2022-11-02T14:38:37.712Z,1014.75
2022-11-02T14:39:37.726Z,1014.68
2022-11-02T14:41:42.214Z,1014.63
2022-11-02T14:42:41.768Z,1014.62
2022-11-02T14:44:45.781Z,1014.59
2022-11-02T14:45:45.801Z,1014.63